Time;durP1;ratioP1;P1;durP2;ratioP2;P2;SDS_P1;SDS_P2;PMS_P1;PMS_P2;Temp;Humidity;BMP_temperature;BMP_pressure;BME280_temperature;BME280_humidity;BME280_pressure;Samples;Min_cycle;Max_cycle;Signal;HPM_P1;HPM_P2
2022/02/23 00:01:18;;;;;;;5.47;1.83;;;6.70;1.00;;;6.83;75.01;100565.88;4995332;28;20234;-71
2022/02/23 00:03:48;;;;;;;7.38;2.13;;;6.70;1.00;;;6.80;74.12;100582.38;4977888;28;20241;-70
2022/02/23 00:06:19;;;;;;;19.38;3.33;;;6.70;1.00;;;6.82;73.10;100583.03;4995853;28;20194;-70
2022/02/23 00:08:48;;;;;;;5.80;1.95;;;6.70;1.00;;;6.82;72.52;100586.56;4995640;28;20194;-71
2022/02/23 00:11:16;;;;;;;13.48;2.72;;;6.70;99.90;;;6.85;72.86;100590.72;4995775;28;20183;-70
2022/02/23 00:13:45;;;;;;;7.30;2.80;;;6.70;99.90;;;6.80;72.92;100603.91;4995206;28;20206;-70
2022/02/23 00:16:13;;;;;;;10.27;2.83;;;6.70;99.90;;;6.74;72.52;100612.69;4996092;28;20644;-70
2022/02/23 00:18:44;;;;;;;12.60;3.10;;;6.60;99.90;;;6.58;73.10;100618.25;4999914;28;20171;-70
2022/02/23 00:21:13;;;;;;;8.10;2.42;;;6.60;99.90;;;6.45;73.45;100629.63;5000578;28;20207;-70
2022/02/23 00:23:44;;;;;;;16.52;2.35;;;6.40;99.90;;;6.40;73.79;100643.59;5000723;28;20222;-70
2022/02/23 00:26:13;;;;;;;10.85;3.35;;;6.30;99.90;;;6.34;75.17;100640.81;4997748;28;20195;-70
2022/02/23 00:28:42;;;;;;;13.55;3.92;;;6.20;99.90;;;6.25;74.51;100621.22;4995143;28;20229;-70
2022/02/23 00:31:11;;;;;;;13.20;2.95;;;6.20;99.90;;;6.21;74.61;100668.28;4978831;28;20209;-71
2022/02/23 00:33:39;;;;;;;14.48;2.75;;;6.10;99.90;;;6.17;75.52;100672.34;4998322;28;20699;-69
2022/02/23 00:36:08;;;;;;;12.63;4.30;;;6.10;99.90;;;6.03;76.82;100699.97;4997003;28;20559;-68
2022/02/23 00:38:37;;;;;;;9.93;1.85;;;6.00;99.90;;;5.65;77.15;100701.66;4997014;28;20191;-68
2022/02/23 00:41:05;;;;;;;5.63;2.03;;;5.70;99.90;;;5.40;79.14;100705.47;4978092;28;20211;-69
2022/02/23 00:43:34;;;;;;;9.93;1.58;;;5.40;1.00;;;5.17;78.98;100710.75;4994972;28;20257;-70
2022/02/23 00:46:02;;;;;;;4.38;1.55;;;5.20;1.00;;;5.09;79.06;100706.22;4994891;28;20237;-69
2022/02/23 00:48:30;;;;;;;4.10;1.55;;;5.10;99.90;;;5.09;77.23;100705.38;4995081;28;20179;-70
2022/02/23 00:50:58;;;;;;;3.28;1.05;;;5.00;99.90;;;5.09;77.37;100708.88;4995033;28;20182;-70
2022/02/23 00:53:28;;;;;;;6.57;1.50;;;5.00;99.90;;;5.12;76.60;100707.72;4995458;28;20214;-71
2022/02/23 00:55:57;;;;;;;3.75;1.17;;;5.00;36.80;;;5.07;77.13;100724.34;4995363;28;20656;-70
2022/02/23 00:58:25;;;;;;;10.60;1.80;;;5.00;86.20;;;5.03;77.50;100727.53;4996768;28;20190;-70
2022/02/23 01:00:54;;;;;;;4.10;1.88;;;5.00;99.90;;;4.93;78.12;100738.44;4998366;28;20217;-71
2022/02/23 01:03:22;;;;;;;5.65;1.20;;;4.90;52.50;;;4.86;78.87;100737.44;4997644;28;20226;-68
2022/02/23 01:05:51;;;;;;;13.77;1.90;;;4.80;99.90;;;4.86;78.90;100750.00;4996865;28;20648;-71
2022/02/23 01:08:19;;;;;;;5.65;2.00;;;4.80;99.90;;;4.82;79.26;100749.50;4995941;28;20222;-69
2022/02/23 01:10:49;;;;;;;7.40;1.45;;;4.80;99.90;;;4.91;79.67;100753.84;4994391;28;20249;-69
2022/02/23 01:13:18;;;;;;;3.75;2.10;;;4.80;99.90;;;4.91;79.12;100758.38;4994227;28;20214;-70
2022/02/23 01:15:47;;;;;;;10.75;2.60;;;4.80;99.90;;;4.85;79.12;100759.88;4994114;28;20187;-70
2022/02/23 01:18:15;;;;;;;10.07;2.40;;;4.80;99.90;;;4.77;79.31;100758.06;4994218;28;20198;-69
2022/02/23 01:20:43;;;;;;;11.75;3.58;;;4.70;99.90;;;4.79;78.69;100749.84;4994054;28;20210;-69
2022/02/23 01:23:12;;;;;;;13.18;2.85;;;4.70;99.90;;;4.77;78.79;100768.78;4994089;28;20779;-70
2022/02/23 01:25:40;;;;;;;12.88;2.95;;;4.70;99.90;;;4.74;79.43;100769.09;4993691;28;20221;-70
2022/02/23 01:28:12;;;;;;;19.85;5.00;;;4.70;99.90;;;4.74;78.55;100774.44;4993716;28;20179;-71
2022/02/23 01:30:40;;;;;;;7.43;2.80;;;4.70;99.90;;;4.75;78.87;100780.66;4993772;28;20241;-69
2022/02/23 01:33:09;;;;;;;19.75;3.60;;;4.60;99.90;;;4.78;78.28;100781.19;4976432;28;20214;-69
2022/02/23 01:35:37;;;;;;;18.98;4.85;;;4.70;99.90;;;4.77;77.93;100797.44;4993324;28;20179;-70
2022/02/23 01:38:05;;;;;;;16.17;3.58;;;4.70;99.90;;;4.84;77.57;100802.97;4976089;28;20552;-70
2022/02/23 01:40:34;;;;;;;14.73;4.30;;;4.70;99.90;;;4.95;77.25;100798.09;4993762;28;20186;-70
2022/02/23 01:43:02;;;;;;;17.92;4.60;;;4.80;99.90;;;5.04;77.39;100804.28;4993544;28;20211;-69
2022/02/23 01:45:32;;;;;;;19.27;4.97;;;4.90;99.90;;;5.11;76.32;100802.63;4993603;28;20179;-69
2022/02/23 01:48:00;;;;;;;12.38;4.90;;;4.90;99.90;;;5.23;75.95;100810.13;4993445;28;20214;-69
2022/02/23 01:50:29;;;;;;;26.75;6.47;;;5.00;1.00;;;5.26;75.43;100795.56;4993577;28;20238;-70
2022/02/23 01:53:02;;;;;;;19.63;4.35;;;5.10;1.00;;;5.29;74.75;100813.97;4993697;28;20218;-69
2022/02/23 01:55:38;;;;;;;11.15;3.88;;;5.10;1.00;;;5.35;74.26;100820.53;4979007;28;20212;-77
2022/02/23 01:58:11;;;;;;;17.10;5.05;;;5.20;1.00;;;5.36;73.84;100820.34;4969103;29;20551;-76
2022/02/23 02:00:48;;;;;;;13.85;4.20;;;5.20;99.90;;;5.35;73.48;100821.38;4926887;29;20200;-77
2022/02/23 02:03:23;;;;;;;13.20;3.53;;;5.20;99.90;;;5.37;73.60;100815.84;4919886;29;20208;-76
2022/02/23 02:06:05;;;;;;;13.05;3.70;;;5.20;99.90;;;5.46;73.00;100829.06;4936884;29;20185;-77
2022/02/23 02:08:33;;;;;;;24.92;4.90;;;5.40;99.90;;;5.49;72.64;100827.88;4936589;29;20221;-77
2022/02/23 02:11:02;;;;;;;22.30;6.10;;;5.40;99.90;;;5.57;72.60;100841.25;4921066;29;20267;-77
2022/02/23 02:13:30;;;;;;;14.63;4.88;;;5.40;99.90;;;5.54;72.98;100847.00;4946744;29;20671;-76
2022/02/23 02:16:00;;;;;;;12.45;4.95;;;5.40;99.90;;;5.59;72.62;100853.53;4950887;29;20195;-76
2022/02/23 02:18:31;;;;;;;11.65;3.15;;;5.40;99.90;;;5.65;71.84;100835.91;4951017;29;20859;-76
2022/02/23 02:21:06;;;;;;;18.77;4.13;;;5.50;99.90;;;5.62;71.61;100834.38;4943661;29;20535;-78
2022/02/23 02:23:37;;;;;;;20.20;4.40;;;5.50;99.90;;;5.61;72.18;100840.78;4921056;29;20718;-77
2022/02/23 02:26:23;;;;;;;14.95;4.45;;;5.50;99.90;;;5.54;72.57;100849.69;4937463;29;20264;-77
2022/02/23 02:29:05;;;;;;;15.00;3.85;;;5.50;99.90;;;5.49;72.16;100858.25;4922328;29;20778;-77
2022/02/23 02:31:39;;;;;;;23.23;4.15;;;5.40;99.90;;;5.45;72.05;100866.81;4920796;29;20220;-78
2022/02/23 02:34:09;;;;;;;16.70;5.25;;;5.40;99.90;;;5.43;72.06;100866.97;4950612;29;20183;-77
2022/02/23 02:36:42;;;;;;;21.92;4.35;;;5.40;99.90;;;5.44;72.17;100882.06;4949741;29;20211;-77
2022/02/23 02:39:15;;;;;;;25.50;4.60;;;5.40;99.90;;;5.41;72.26;100878.88;4933951;29;20236;-78
2022/02/23 02:41:47;;;;;;;14.27;4.05;;;5.40;99.90;;;5.40;72.87;100894.16;4950048;29;20189;-75
2022/02/23 02:44:22;;;;;;;16.77;4.88;;;5.30;99.90;;;5.42;72.63;100892.13;4941027;29;20197;-77
2022/02/23 02:46:56;;;;;;;6.38;2.50;;;5.40;99.90;;;5.45;72.44;100899.00;4938041;29;20201;-77
2022/02/23 02:49:30;;;;;;;17.13;5.00;;;5.30;99.90;;;5.41;72.66;100898.50;4936520;29;20746;-78
2022/02/23 02:52:07;;;;;;;10.90;3.10;;;5.30;99.90;;;5.36;72.50;100898.19;4939064;29;20176;-77
2022/02/23 02:54:38;;;;;;;16.17;5.90;;;5.30;99.90;;;5.38;73.00;100912.25;4938811;29;20211;-77
2022/02/23 02:57:11;;;;;;;19.85;4.45;;;5.30;99.90;;;5.33;72.84;100911.06;4923121;29;20189;-76
2022/02/23 02:59:45;;;;;;;20.17;4.68;;;5.30;99.90;;;5.34;72.63;100921.66;4941980;29;20217;-78
2022/02/23 03:02:21;;;;;;;19.95;4.43;;;5.30;99.90;;;5.39;73.14;100929.19;4937763;29;20227;-78
2022/02/23 03:04:55;;;;;;;16.80;3.90;;;5.30;99.90;;;5.43;72.47;100935.91;4940310;29;20197;-77
2022/02/23 03:07:33;;;;;;;40.75;6.82;;;5.30;99.90;;;5.34;72.92;100940.44;4945628;29;20235;-77
2022/02/23 03:10:11;;;;;;;14.15;3.67;;;5.30;99.90;;;5.36;73.16;100941.13;4941485;29;20204;-77
2022/02/23 03:12:44;;;;;;;17.55;5.88;;;5.30;99.90;;;5.36;72.94;100941.13;4928026;29;20189;-77
2022/02/23 03:15:16;;;;;;;24.23;3.95;;;5.30;99.90;;;5.34;73.09;100948.47;4947154;29;20499;-79
2022/02/23 03:17:48;;;;;;;9.93;4.72;;;5.30;99.90;;;5.43;72.67;100952.00;4929056;29;20280;-79
2022/02/23 03:20:20;;;;;;;11.77;4.13;;;5.30;99.90;;;5.47;72.95;100956.06;4941389;29;20299;-79
2022/02/23 03:22:55;;;;;;;16.25;4.05;;;5.40;99.90;;;5.55;72.90;100967.63;4943374;29;20201;-78
2022/02/23 03:25:30;;;;;;;18.40;4.32;;;5.40;99.90;;;5.47;72.71;100964.09;4926891;29;20197;-79
2022/02/23 03:27:59;;;;;;;10.00;3.30;;;5.50;99.90;;;5.45;72.93;100980.38;4942357;29;20272;-77
2022/02/23 03:30:30;;;;;;;11.43;2.85;;;5.40;99.90;;;5.40;73.32;100988.06;4922258;29;20649;-79
2022/02/23 03:33:00;;;;;;;19.58;4.57;;;5.30;99.90;;;5.40;73.74;100984.56;4924631;29;20191;-79
2022/02/23 03:35:28;;;;;;;21.80;4.63;;;5.30;99.90;;;5.41;73.21;100991.59;4940219;29;20261;-78
2022/02/23 03:38:05;;;;;;;16.63;4.47;;;5.30;99.90;;;5.42;72.85;100969.94;4940523;29;20188;-77
2022/02/23 03:40:40;;;;;;;8.30;3.38;;;5.30;99.90;;;5.43;73.58;100989.56;4939291;29;20216;-76
2022/02/23 03:43:10;;;;;;;20.60;3.92;;;5.40;99.90;;;5.47;73.37;101007.06;4940402;29;20574;-77
2022/02/23 03:45:45;;;;;;;17.75;4.85;;;5.40;99.90;;;5.46;72.79;100995.47;4923688;29;20201;-78
2022/02/23 03:48:18;;;;;;;15.98;4.25;;;5.40;99.90;;;5.50;72.76;101007.56;4925219;29;20196;-77
2022/02/23 03:50:49;;;;;;;15.85;3.47;;;5.40;99.90;;;5.55;72.61;101025.84;4943569;29;20193;-78
2022/02/23 03:53:21;;;;;;;17.90;4.57;;;5.40;99.90;;;5.56;73.02;101038.25;4941734;29;20601;-79
2022/02/23 03:55:51;;;;;;;15.30;4.05;;;5.40;99.90;;;5.53;73.08;101044.78;4943203;29;20181;-79
2022/02/23 03:58:21;;;;;;;19.35;3.22;;;5.50;99.90;;;5.50;73.26;101050.50;4942596;29;20176;-79
2022/02/23 04:00:51;;;;;;;16.27;4.28;;;5.50;99.90;;;5.42;73.64;101069.25;4925567;29;20203;-78
2022/02/23 04:03:20;;;;;;;13.73;3.30;;;5.40;99.90;;;5.50;73.80;101071.97;4939725;29;20213;-77
2022/02/23 04:05:50;;;;;;;15.05;4.50;;;5.40;99.90;;;5.47;73.86;101074.16;4938784;29;20189;-78
2022/02/23 04:08:19;;;;;;;16.98;3.83;;;5.40;99.90;;;5.40;74.26;101082.00;4942156;29;20185;-79
2022/02/23 04:10:54;;;;;;;24.35;3.60;;;5.30;1.00;;;5.22;74.39;101078.63;4929991;29;20355;-77
2022/02/23 04:13:26;;;;;;;10.88;2.70;;;5.20;99.90;;;5.14;74.31;101089.28;4938890;29;20200;-76
2022/02/23 04:15:58;;;;;;;6.80;1.77;;;5.10;99.90;;;5.07;74.59;101096.31;4950375;29;20354;-77
2022/02/23 04:18:30;;;;;;;13.18;2.42;;;5.10;69.60;;;4.97;74.64;101106.34;4938673;29;20221;-76
2022/02/23 04:21:03;;;;;;;7.38;2.63;;;4.90;96.10;;;4.99;74.97;101110.53;4943234;29;20313;-78
2022/02/23 04:23:33;;;;;;;3.92;1.77;;;4.90;99.90;;;4.88;75.58;101113.50;4942906;29;20598;-79
2022/02/23 04:26:07;;;;;;;6.70;1.77;;;4.90;99.90;;;4.85;75.69;101118.31;4928142;29;20220;-79
2022/02/23 04:28:39;;;;;;;9.07;2.30;;;4.80;99.90;;;4.75;76.02;101124.66;4942836;29;20311;-77
2022/02/23 04:31:11;;;;;;;10.07;2.92;;;4.80;99.90;;;4.71;76.35;101130.50;4953932;29;20644;-75
2022/02/23 04:33:42;;;;;;;5.78;2.70;;;4.70;99.90;;;4.64;76.66;101132.97;4940964;29;20216;-78
2022/02/23 04:36:16;;;;;;;10.25;2.65;;;4.70;99.90;;;4.60;77.02;101153.03;4957445;29;20260;-77
2022/02/23 04:38:49;;;;;;;8.43;2.97;;;4.60;99.90;;;4.50;77.83;101140.75;4957440;29;20200;-76
2022/02/23 04:41:27;;;;;;;6.30;2.17;;;4.50;99.90;;;4.43;77.85;101151.25;4941592;29;20177;-77
2022/02/23 04:44:01;;;;;;;14.35;2.38;;;4.40;99.90;;;4.37;78.62;101157.22;4957519;29;20276;-77
2022/02/23 04:46:30;;;;;;;11.75;3.60;;;4.40;99.90;;;4.32;79.03;101165.72;4956954;29;20180;-76
2022/02/23 04:49:01;;;;;;;8.13;2.58;;;4.40;99.90;;;4.38;78.82;101170.47;4956561;29;20227;-75
2022/02/23 04:51:31;;;;;;;17.65;3.08;;;4.40;99.90;;;4.43;79.30;101171.84;4953765;29;20208;-77
2022/02/23 04:54:01;;;;;;;15.23;2.95;;;4.30;99.90;;;4.47;78.97;101162.50;4950341;29;20660;-78
2022/02/23 04:56:32;;;;;;;11.75;5.25;;;4.40;99.90;;;4.52;79.20;101179.78;4923362;29;20197;-76
2022/02/23 04:59:08;;;;;;;18.45;4.43;;;4.40;99.90;;;4.51;79.05;101186.13;4920523;29;20224;-80
2022/02/23 05:01:40;;;;;;;21.63;4.32;;;4.40;99.90;;;4.49;78.93;101184.63;4920894;29;20200;-77
2022/02/23 05:04:14;;;;;;;22.55;5.00;;;4.40;99.90;;;4.49;79.06;101185.47;4941230;29;20719;-78
2022/02/23 05:06:43;;;;;;;19.65;4.80;;;4.40;99.90;;;4.49;79.28;101177.44;4938528;29;20184;-79
2022/02/23 05:09:13;;;;;;;20.80;5.05;;;4.40;99.90;;;4.50;78.91;101189.84;4937321;29;20635;-77
2022/02/23 05:11:48;;;;;;;25.58;4.75;;;4.40;99.90;;;4.53;78.79;101194.03;4922947;29;20617;-78
2022/02/23 05:14:16;;;;;;;24.02;5.50;;;4.50;99.90;;;4.51;78.61;101191.50;4938362;29;20193;-78
2022/02/23 05:16:45;;;;;;;25.75;6.30;;;4.50;99.90;;;4.52;78.84;101193.19;4939615;29;20261;-78
2022/02/23 05:19:20;;;;;;;18.63;4.80;;;4.40;99.90;;;4.63;78.18;101192.94;4937548;29;20240;-77
2022/02/23 05:21:51;;;;;;;17.60;3.08;;;4.50;99.90;;;4.72;77.94;101213.44;4920056;29;20204;-77
2022/02/23 05:24:22;;;;;;;21.70;4.97;;;4.60;99.90;;;4.70;77.98;101215.44;4939239;29;20267;-77
2022/02/23 05:26:52;;;;;;;15.13;4.13;;;4.60;99.90;;;4.71;77.75;101219.81;4939414;29;20668;-77
2022/02/23 05:29:20;;;;;;;14.98;4.50;;;4.60;99.90;;;4.72;77.85;101220.66;4939459;29;20884;-78
2022/02/23 05:31:49;;;;;;;21.52;5.03;;;4.70;99.90;;;4.69;78.12;101223.66;4940615;29;20617;-77
2022/02/23 05:34:17;;;;;;;14.90;4.88;;;4.60;99.90;;;4.67;77.92;101229.16;4940809;29;20185;-78
2022/02/23 05:36:47;;;;;;;25.20;4.80;;;4.60;99.90;;;4.69;77.79;101229.88;4940701;29;20399;-78
2022/02/23 05:39:21;;;;;;;28.73;5.53;;;4.60;99.90;;;4.71;77.44;101241.25;4923582;29;20256;-77
2022/02/23 05:41:52;;;;;;;24.00;5.10;;;4.60;99.90;;;4.73;77.49;101241.09;4941252;29;20185;-78
2022/02/23 05:44:21;;;;;;;18.17;4.60;;;4.70;99.90;;;4.74;77.29;101248.97;4924132;29;20670;-76
2022/02/23 05:46:49;;;;;;;18.77;3.80;;;4.70;99.90;;;4.79;77.14;101249.34;4939393;29;20177;-77
2022/02/23 05:49:18;;;;;;;18.15;4.43;;;4.70;99.90;;;4.76;77.21;101264.91;4941874;29;20216;-78
2022/02/23 05:51:50;;;;;;;13.40;4.85;;;4.70;99.90;;;4.81;76.70;101255.41;4943414;29;20663;-79
2022/02/23 05:54:21;;;;;;;18.75;4.03;;;4.70;99.90;;;4.78;76.89;101262.94;4949596;29;20215;-76
2022/02/23 05:56:50;;;;;;;15.10;4.30;;;4.70;99.90;;;4.76;77.08;101271.13;4953016;29;20240;-77
2022/02/23 05:59:20;;;;;;;18.60;4.43;;;4.70;99.90;;;4.72;77.07;101279.63;4951892;29;20344;-77
2022/02/23 06:01:48;;;;;;;14.25;4.57;;;4.70;99.90;;;4.76;77.09;101286.38;4953309;29;20177;-78
2022/02/23 06:04:17;;;;;;;18.80;6.00;;;4.70;99.90;;;4.77;76.91;101288.91;4942417;29;20596;-78
2022/02/23 06:06:45;;;;;;;18.15;5.78;;;4.70;99.90;;;4.85;76.52;101300.66;4941455;29;20189;-79
2022/02/23 06:09:16;;;;;;;21.42;5.45;;;4.70;99.90;;;4.87;76.50;101298.69;4940481;29;20212;-79
2022/02/23 06:11:46;;;;;;;24.20;5.15;;;4.80;99.90;;;4.92;76.42;101307.97;4942390;29;20566;-79
2022/02/23 06:14:18;;;;;;;20.65;5.40;;;4.80;99.90;;;4.91;76.46;101313.47;4939592;29;20173;-78
2022/02/23 06:16:47;;;;;;;19.17;4.65;;;4.80;99.90;;;5.00;76.30;101312.53;4941311;29;20187;-77
2022/02/23 06:19:15;;;;;;;15.57;4.18;;;4.90;99.90;;;4.97;75.97;101316.38;4940393;29;20287;-78
2022/02/23 06:21:44;;;;;;;16.92;5.10;;;4.90;99.90;;;5.03;76.05;101326.50;4940240;29;20191;-77
2022/02/23 06:24:16;;;;;;;13.25;4.90;;;4.90;99.90;;;5.08;75.52;101328.72;4939965;29;20223;-77
2022/02/23 06:26:45;;;;;;;20.98;4.90;;;4.90;99.90;;;5.04;75.43;101344.25;4942378;29;20185;-79
2022/02/23 06:29:15;;;;;;;22.90;4.78;;;5.00;99.90;;;5.14;75.05;101338.78;4942067;29;20279;-78
2022/02/23 06:31:58;;;;;;;17.73;5.18;;;5.00;99.90;;;5.17;75.54;101354.59;4941766;29;20180;-77
2022/02/23 06:34:27;;;;;;;13.90;3.08;;;5.10;99.90;;;5.30;74.76;101357.72;4938805;29;20192;-78
2022/02/23 06:36:56;;;;;;;13.80;5.35;;;5.10;99.90;;;5.35;74.81;101363.44;4938982;29;20372;-78
2022/02/23 06:39:24;;;;;;;13.93;3.72;;;5.20;99.90;;;5.36;74.90;101365.13;4942347;29;20205;-77
2022/02/23 06:41:53;;;;;;;15.25;4.82;;;5.30;99.90;;;5.37;74.48;101379.41;4943893;29;20181;-79
2022/02/23 06:44:23;;;;;;;25.73;5.68;;;5.30;99.90;;;5.37;74.78;101382.09;4943901;29;20404;-78
2022/02/23 06:46:54;;;;;;;20.17;5.07;;;5.20;99.90;;;5.38;74.73;101394.47;4926429;29;20195;-77
2022/02/23 06:49:22;;;;;;;16.08;3.67;;;5.30;99.90;;;5.42;74.17;101404.75;4942968;29;20222;-77
2022/02/23 06:51:53;;;;;;;18.00;5.88;;;5.30;99.90;;;5.39;74.97;101404.22;4945476;29;20213;-77
2022/02/23 06:54:27;;;;;;;24.00;5.10;;;5.30;99.90;;;5.41;74.50;101408.47;4943579;29;20216;-78
2022/02/23 06:56:56;;;;;;;13.27;3.85;;;5.30;99.90;;;5.44;74.86;101409.97;4943382;29;20191;-80
2022/02/23 06:59:24;;;;;;;18.33;3.83;;;5.30;99.90;;;5.44;74.43;101418.88;4943180;29;20217;-78
2022/02/23 07:01:58;;;;;;;21.45;5.18;;;5.40;99.90;;;5.43;74.49;101413.66;4941537;29;20279;-76
2022/02/23 07:04:35;;;;;;;19.58;4.35;;;5.40;99.90;;;5.53;74.61;101420.63;4940340;29;20213;-79
2022/02/23 07:07:08;;;;;;;26.15;5.60;;;5.40;99.90;;;5.46;74.21;101424.94;4957786;29;20203;-78
2022/02/23 07:09:40;;;;;;;17.85;4.68;;;5.40;99.90;;;5.53;74.14;101425.13;4941745;29;20223;-77
2022/02/23 07:12:14;;;;;;;11.55;5.25;;;5.40;99.90;;;5.60;74.12;101424.38;4941902;29;20208;-78
2022/02/23 07:14:48;;;;;;;21.00;4.60;;;5.40;99.90;;;5.60;74.01;101429.75;4933777;29;20255;-76
2022/02/23 07:17:28;;;;;;;22.27;5.07;;;5.50;99.90;;;5.65;73.57;101442.69;4940666;29;20247;-78
2022/02/23 07:20:04;;;;;;;12.65;3.63;;;5.50;99.90;;;5.68;73.23;101456.63;4940690;29;20248;-79
2022/02/23 07:22:39;;;;;;;13.48;4.72;;;5.60;99.90;;;5.73;73.50;101456.16;4941420;29;20379;-78
2022/02/23 07:25:10;;;;;;;23.10;6.15;;;5.60;99.90;;;5.81;73.10;101466.13;4942078;29;20232;-78
2022/02/23 07:27:44;;;;;;;15.27;6.07;;;5.70;99.90;;;5.90;72.86;101466.06;4929650;29;20205;-78
2022/02/23 07:30:17;;;;;;;8.85;3.22;;;5.70;99.90;;;5.87;72.49;101470.88;4926230;29;20224;-77
2022/02/23 07:32:53;;;;;;;17.80;3.08;;;5.80;99.90;;;5.97;72.11;101483.22;4927651;29;20331;-76
2022/02/23 07:35:22;;;;;;;19.48;5.00;;;5.80;99.90;;;6.01;72.56;101489.97;4907711;29;20668;-78
2022/02/23 07:38:08;;;;;;;21.35;4.88;;;5.90;99.90;;;6.07;71.99;101494.72;4935624;28;20193;-78
2022/02/23 07:40:37;;;;;;;17.02;4.90;;;6.00;99.90;;;6.01;72.26;101500.72;4935682;29;20220;-71
2022/02/23 07:43:25;;;;;;;17.40;5.38;;;6.00;99.90;;;6.09;72.15;101502.63;4939527;29;20664;-70
2022/02/23 07:46:12;;;;;;;14.20;4.70;;;6.00;99.90;;;6.27;71.66;101516.00;4956938;29;20295;-74
2022/02/23 07:48:42;;;;;;;13.60;4.13;;;6.10;99.90;;;6.18;71.23;101501.66;4956051;29;20216;-72
2022/02/23 07:54:18;;;;;;;13.20;4.70;;;6.10;99.90;;;6.47;70.99;101518.28;4972827;28;20250;-74
2022/02/23 07:56:47;;;;;;;35.42;6.47;;;6.30;99.90;;;6.72;69.79;101527.31;4974799;28;20302;-74
2022/02/23 07:59:15;;;;;;;18.15;4.95;;;6.50;99.90;;;6.79;69.12;101528.34;4973920;28;20580;-74
2022/02/23 08:01:47;;;;;;;23.38;5.35;;;6.60;99.90;;;6.77;68.99;101535.75;4973543;28;20544;-75
2022/02/23 08:04:20;;;;;;;17.20;6.25;;;6.70;99.90;;;6.78;68.49;101536.56;4956259;28;20219;-75
2022/02/23 08:06:48;;;;;;;12.93;3.90;;;6.70;99.90;;;6.72;68.63;101527.31;4973672;28;20203;-73
2022/02/23 08:09:17;;;;;;;16.25;5.82;;;6.60;99.90;;;6.83;68.63;101528.84;4973566;28;20216;-75
2022/02/23 08:11:48;;;;;;;15.20;4.47;;;6.70;99.90;;;6.95;68.91;101530.25;4956008;28;20192;-74
2022/02/23 08:14:17;;;;;;;11.65;4.40;;;6.80;99.90;;;7.02;68.50;101544.72;4973444;28;20533;-75
2022/02/23 08:19:34;;;;;;;7.80;2.75;;;6.80;99.90;;;6.93;68.41;101534.94;4972584;28;20241;-76
2022/02/23 08:22:07;;;;;;;10.68;4.55;;;6.80;99.90;;;6.90;67.85;101546.91;4973618;28;20302;-74
2022/02/23 08:24:40;;;;;;;8.65;3.42;;;6.80;99.90;;;7.04;67.35;101552.66;4972063;28;20263;-74
2022/02/23 08:27:11;;;;;;;18.27;4.05;;;6.90;99.90;;;7.06;67.42;101556.88;4971511;28;20302;-74
2022/02/23 08:29:41;;;;;;;20.95;4.85;;;6.90;99.90;;;7.20;67.57;101558.09;4972191;28;20243;-74
2022/02/23 08:32:12;;;;;;;17.83;6.72;;;7.00;99.90;;;7.41;67.02;101553.91;4954784;28;20196;-75
2022/02/23 08:34:45;;;;;;;17.17;4.32;;;7.20;99.90;;;7.32;66.58;101559.44;4973079;28;20202;-75
2022/02/23 08:37:16;;;;;;;14.27;3.58;;;7.20;99.90;;;7.34;66.26;101560.16;4955887;28;20200;-74
2022/02/23 08:39:48;;;;;;;19.00;3.88;;;7.20;99.90;;;7.47;65.65;101565.03;4976275;28;20298;-74
2022/02/23 08:42:18;;;;;;;17.33;4.65;;;7.40;99.90;;;7.59;65.98;101566.41;4981748;28;20184;-74
2022/02/23 08:44:46;;;;;;;19.80;4.93;;;7.40;99.90;;;7.83;65.46;101563.75;4962499;28;20658;-73
2022/02/23 08:47:15;;;;;;;17.65;4.57;;;7.60;99.90;;;7.70;64.98;101571.47;4959924;28;20639;-74
2022/02/23 08:49:45;;;;;;;12.27;4.47;;;7.60;99.90;;;7.56;64.54;101572.97;4976059;28;20219;-74
2022/02/23 08:52:14;;;;;;;17.23;2.72;;;7.50;99.90;;;7.82;64.16;101572.84;4958685;28;20209;-74
2022/02/23 08:54:43;;;;;;;12.05;3.28;;;7.60;99.90;;;7.77;63.52;101573.34;4975727;28;20199;-75
2022/02/23 08:57:12;;;;;;;14.20;3.25;;;7.70;99.90;;;7.70;64.13;101571.47;4958926;28;20434;-74
2022/02/23 08:59:41;;;;;;;16.80;5.77;;;7.70;99.90;;;7.77;64.03;101573.34;4973449;28;20534;-75
2022/02/23 09:02:15;;;;;;;11.40;3.60;;;7.70;99.90;;;7.92;63.09;101596.91;4973519;28;20422;-74
2022/02/23 09:04:52;;;;;;;11.73;3.97;;;7.80;99.90;;;8.07;62.83;101585.31;4974806;28;20214;-74
2022/02/23 09:07:32;;;;;;;17.98;3.78;;;7.90;99.90;;;7.94;62.98;101579.56;4972551;28;20195;-74
2022/02/23 09:10:02;;;;;;;16.15;3.60;;;7.90;99.90;;;8.17;62.29;101564.41;4955815;28;20266;-76
2022/02/23 09:12:30;;;;;;;11.30;2.90;;;8.00;99.90;;;8.28;61.75;101588.31;4974189;28;20666;-75
2022/02/23 09:15:00;;;;;;;16.98;5.80;;;8.20;99.90;;;8.40;61.46;101585.28;4968601;28;20196;-74
2022/02/23 09:17:29;;;;;;;11.40;4.25;;;8.30;99.90;;;8.32;60.70;101578.06;4942477;28;20692;-74
2022/02/23 09:19:59;;;;;;;11.40;3.90;;;8.30;99.90;;;8.56;60.18;101609.56;4956973;28;20244;-75
2022/02/23 09:22:28;;;;;;;8.88;3.45;;;8.50;99.90;;;8.47;59.67;101592.50;4957026;28;20218;-75
2022/02/23 09:24:56;;;;;;;15.52;4.55;;;8.40;99.90;;;8.41;60.61;101603.16;4973985;28;20662;-74
2022/02/23 09:27:25;;;;;;;6.10;3.28;;;8.30;99.90;;;8.29;60.14;101602.63;4972676;28;20283;-73
2022/02/23 09:29:53;;;;;;;7.55;2.63;;;8.20;99.90;;;8.29;60.59;101610.72;4956076;28;20230;-74
2022/02/23 09:32:22;;;;;;;19.88;4.03;;;8.20;99.90;;;8.24;60.82;101607.69;4976153;28;20246;-75
2022/02/23 09:34:50;;;;;;;13.55;4.25;;;8.20;99.90;;;8.46;60.63;101611.59;4975453;28;20610;-74
2022/02/23 09:37:20;;;;;;;9.63;2.28;;;8.30;99.90;;;8.24;60.17;101632.81;4974424;28;20698;-75
2022/02/23 09:39:48;;;;;;;19.10;4.90;;;8.20;99.90;;;8.24;60.58;101613.94;4974940;28;20218;-75
2022/02/23 09:42:21;;;;;;;11.45;3.50;;;8.10;99.90;;;8.25;59.90;101612.94;4973936;28;20191;-74
2022/02/23 09:44:51;;;;;;;15.05;3.42;;;8.20;99.90;;;8.11;60.83;101629.78;4956485;28;20215;-73
2022/02/23 09:47:39;;;;;;;14.38;3.42;;;8.10;99.90;;;8.19;60.66;101620.84;4957322;28;20222;-73
2022/02/23 09:50:18;;;;;;;15.75;3.83;;;8.10;99.90;;;8.39;60.79;101634.84;4974081;28;20266;-74
2022/02/23 09:52:50;;;;;;;15.05;4.05;;;8.20;99.90;;;8.23;58.79;101611.41;4977052;28;20257;-74
2022/02/23 09:55:21;;;;;;;8.88;3.35;;;8.10;99.90;;;8.28;59.17;101617.13;4978159;28;20209;-74
2022/02/23 09:57:50;;;;;;;7.72;2.83;;;8.20;99.90;;;8.31;58.30;101624.06;4964160;28;20182;-74
2022/02/23 10:00:19;;;;;;;10.98;3.00;;;8.20;99.90;;;8.39;58.42;101629.44;4975755;28;20215;-74
2022/02/23 10:02:51;;;;;;;18.98;2.67;;;8.30;99.90;;;8.39;59.13;101638.38;4975753;28;20274;-75
2022/02/23 10:05:27;;;;;;;11.52;3.35;;;8.20;99.90;;;8.40;58.34;101640.09;4976991;28;20245;-73
2022/02/23 10:08:17;;;;;;;6.40;3.67;;;8.30;98.60;;;8.40;57.84;101647.31;4979094;28;20188;-74
2022/02/23 10:11:16;;;;;;;14.52;4.82;;;8.30;97.00;;;8.76;57.75;101656.75;4977074;28;20219;-74
2022/02/23 10:13:50;;;;;;;23.27;6.90;;;8.50;96.40;;;8.73;57.58;101663.31;4973504;28;20184;-74
2022/02/23 10:16:26;;;;;;;7.88;3.72;;;8.60;95.60;;;8.66;57.12;101664.16;4973311;28;20176;-75
2022/02/23 10:19:11;;;;;;;10.43;3.13;;;8.60;94.60;;;8.67;57.17;101665.84;4973462;28;20298;-74
2022/02/23 10:21:52;;;;;;;15.02;3.67;;;8.50;93.20;;;8.73;56.70;101673.25;4956095;28;20286;-74
2022/02/23 10:24:29;;;;;;;9.65;3.03;;;8.60;92.50;;;8.60;56.74;101676.50;4955776;28;20218;-74
2022/02/23 10:27:08;;;;;;;16.42;5.47;;;8.60;91.20;;;8.87;56.32;101679.78;4972889;28;20685;-74
2022/02/23 10:29:47;;;;;;;10.75;2.08;;;8.70;97.50;;;9.01;55.86;101693.44;4953642;29;20666;-74
2022/02/23 10:32:22;;;;;;;5.72;2.00;;;8.90;89.80;;;8.98;55.82;101680.28;4968666;28;20207;-75
2022/02/23 10:35:05;;;;;;;8.20;3.70;;;8.90;87.50;;;9.26;55.91;101691.50;4973389;28;20176;-75
2022/02/23 10:37:39;;;;;;;12.18;4.43;;;9.10;86.50;;;9.38;55.17;101694.69;4970282;28;20204;-74
2022/02/23 10:40:25;;;;;;;10.15;3.78;;;9.20;82.90;;;8.96;54.82;101693.09;4972656;28;20219;-73
2022/02/23 10:42:56;;;;;;;12.70;3.47;;;9.10;78.70;;;9.11;54.94;101685.97;4973011;28;20278;-74
2022/02/23 10:45:26;;;;;;;12.23;4.60;;;9.10;77.20;;;9.07;55.17;101700.84;4956428;28;20385;-74